sensor_id;sensor_type;location;lat;lon;timestamp;pressure;altitude;pressure_sealevel;temperature;humidity
60918;BME280;46792;38.854;-9.384;2022-11-23T00:05:16;99689.06;;;16.84;100.00
60918;BME280;46792;38.854;-9.384;2022-11-23T00:07:16;99686.44;;;16.93;100.00
60918;BME280;46792;38.854;-9.384;2022-11-23T00:09:17;99689.88;;;16.85;100.00
60918;BME280;46792;38.854;-9.384;2022-11-23T00:11:20;99687.16;;;16.85;100.00
60918;BME280;46792;38.854;-9.384;2022-11-23T00:13:21;99676.75;;;16.87;100.00
60918;BME280;46792;38.854;-9.384;2022-11-23T00:15:21;99669.69;;;16.86;100.00
60918;BME280;46792;38.854;-9.384;2022-11-23T00:17:22;99661.00;;;16.84;100.00
60918;BME280;46792;38.854;-9.384;2022-11-23T00:19:23;99644.84;;;16.73;100.00
60918;BME280;46792;38.854;-9.384;2022-11-23T00:21:25;99651.91;;;16.75;100.00
60918;BME280;46792;38.854;-9.384;2022-11-23T00:23:26;99650.69;;;16.81;100.00
60918;BME280;46792;38.854;-9.384;2022-11-23T00:25:45;99657.75;;;16.82;100.00
60918;BME280;46792;38.854;-9.384;2022-11-23T00:27:46;99644.31;;;16.85;100.00
60918;BME280;46792;38.854;-9.384;2022-11-23T00:29:46;99644.63;;;16.84;100.00
60918;BME280;46792;38.854;-9.384;2022-11-23T00:31:47;99632.94;;;16.83;100.00
60918;BME280;46792;38.854;-9.384;2022-11-23T00:33:50;99648.97;;;16.85;100.00
60918;BME280;46792;38.854;-9.384;2022-11-23T00:38:20;99634.03;;;16.68;100.00
60918;BME280;46792;38.854;-9.384;2022-11-23T00:40:41;99633.72;;;16.70;100.00
60918;BME280;46792;38.854;-9.384;2022-11-23T00:42:41;99633.72;;;16.56;100.00
60918;BME280;46792;38.854;-9.384;2022-11-23T00:44:42;99651.50;;;16.67;100.00
60918;BME280;46792;38.854;-9.384;2022-11-23T00:46:42;99648.84;;;16.62;100.00
60918;BME280;46792;38.854;-9.384;2022-11-23T00:48:44;99651.28;;;16.64;100.00
60918;BME280;46792;38.854;-9.384;2022-11-23T00:50:49;99649.38;;;16.50;100.00
60918;BME280;46792;38.854;-9.384;2022-11-23T00:52:50;99668.44;;;16.50;100.00
60918;BME280;46792;38.854;-9.384;2022-11-23T00:54:51;99664.38;;;16.48;100.00
60918;BME280;46792;38.854;-9.384;2022-11-23T00:56:52;99646.13;;;16.62;100.00
60918;BME280;46792;38.854;-9.384;2022-11-23T00:58:55;99646.03;;;16.53;100.00
60918;BME280;46792;38.854;-9.384;2022-11-23T01:03:08;99647.03;;;16.44;100.00
60918;BME280;46792;38.854;-9.384;2022-11-23T01:05:27;99651.78;;;16.52;100.00
60918;BME280;46792;38.854;-9.384;2022-11-23T01:07:27;99648.53;;;16.50;100.00
60918;BME280;46792;38.854;-9.384;2022-11-23T01:09:30;99641.91;;;16.56;100.00
60918;BME280;46792;38.854;-9.384;2022-11-23T01:11:31;99642.50;;;16.53;100.00
60918;BME280;46792;38.854;-9.384;2022-11-23T01:13:35;99654.72;;;16.55;100.00
60918;BME280;46792;38.854;-9.384;2022-11-23T01:15:35;99650.38;;;16.54;100.00
60918;BME280;46792;38.854;-9.384;2022-11-23T01:17:36;99644.22;;;16.49;100.00
60918;BME280;46792;38.854;-9.384;2022-11-23T01:19:37;99652.28;;;16.54;100.00
60918;BME280;46792;38.854;-9.384;2022-11-23T01:21:39;99647.63;;;16.54;100.00
60918;BME280;46792;38.854;-9.384;2022-11-23T01:23:40;99645.94;;;16.58;100.00
60918;BME280;46792;38.854;-9.384;2022-11-23T01:25:41;99648.84;;;16.62;100.00
60918;BME280;46792;38.854;-9.384;2022-11-23T01:27:41;99639.06;;;16.61;100.00
60918;BME280;46792;38.854;-9.384;2022-11-23T01:29:42;99645.72;;;16.69;100.00
60918;BME280;46792;38.854;-9.384;2022-11-23T01:31:42;99644.03;;;16.73;100.00
60918;BME280;46792;38.854;-9.384;2022-11-23T01:33:44;99636.94;;;16.72;100.00
60918;BME280;46792;38.854;-9.384;2022-11-23T01:35:44;99632.94;;;16.69;100.00
60918;BME280;46792;38.854;-9.384;2022-11-23T01:38:04;99616.78;;;16.59;100.00
60918;BME280;46792;38.854;-9.384;2022-11-23T01:40:05;99612.53;;;16.67;100.00
60918;BME280;46792;38.854;-9.384;2022-11-23T01:42:06;99612.81;;;16.65;100.00
60918;BME280;46792;38.854;-9.384;2022-11-23T01:44:31;99615.03;;;16.63;100.00
60918;BME280;46792;38.854;-9.384;2022-11-23T01:46:32;99604.78;;;16.60;100.00
60918;BME280;46792;38.854;-9.384;2022-11-23T01:48:50;99604.03;;;16.54;100.00
60918;BME280;46792;38.854;-9.384;2022-11-23T01:50:54;99608.47;;;16.64;100.00
60918;BME280;46792;38.854;-9.384;2022-11-23T01:52:56;99618.00;;;16.67;100.00
60918;BME280;46792;38.854;-9.384;2022-11-23T01:54:57;99612.31;;;16.63;100.00
60918;BME280;46792;38.854;-9.384;2022-11-23T01:57:09;99610.41;;;16.64;100.00
60918;BME280;46792;38.854;-9.384;2022-11-23T01:59:15;99620.31;;;16.60;100.00
60918;BME280;46792;38.854;-9.384;2022-11-23T02:01:16;99622.00;;;16.55;100.00
60918;BME280;46792;38.854;-9.384;2022-11-23T02:03:16;99613.53;;;16.57;100.00
60918;BME280;46792;38.854;-9.384;2022-11-23T02:05:18;99612.44;;;16.58;100.00
60918;BME280;46792;38.854;-9.384;2022-11-23T02:07:20;99601.91;;;16.65;100.00
60918;BME280;46792;38.854;-9.384;2022-11-23T02:09:24;99603.03;;;16.64;100.00
60918;BME280;46792;38.854;-9.384;2022-11-23T02:11:25;99604.06;;;16.68;100.00
60918;BME280;46792;38.854;-9.384;2022-11-23T02:13:27;99601.81;;;16.56;100.00
60918;BME280;46792;38.854;-9.384;2022-11-23T02:15:47;99597.19;;;16.57;100.00
60918;BME280;46792;38.854;-9.384;2022-11-23T02:17:50;99598.59;;;16.54;100.00
60918;BME280;46792;38.854;-9.384;2022-11-23T02:20:10;99601.41;;;16.63;100.00
60918;BME280;46792;38.854;-9.384;2022-11-23T02:22:19;99600.44;;;16.59;100.00
60918;BME280;46792;38.854;-9.384;2022-11-23T02:24:30;99603.53;;;16.66;100.00
60918;BME280;46792;38.854;-9.384;2022-11-23T02:26:35;99597.38;;;16.61;100.00
60918;BME280;46792;38.854;-9.384;2022-11-23T02:30:56;99590.41;;;16.68;100.00
60918;BME280;46792;38.854;-9.384;2022-11-23T02:32:57;99595.97;;;16.63;100.00
60918;BME280;46792;38.854;-9.384;2022-11-23T02:35:16;99591.03;;;16.65;100.00
60918;BME280;46792;38.854;-9.384;2022-11-23T02:37:35;99594.97;;;16.59;100.00
60918;BME280;46792;38.854;-9.384;2022-11-23T02:39:39;99595.38;;;16.66;100.00
60918;BME280;46792;38.854;-9.384;2022-11-23T02:43:47;99590.31;;;16.73;100.00
60918;BME280;46792;38.854;-9.384;2022-11-23T02:45:58;99584.56;;;16.75;100.00
60918;BME280;46792;38.854;-9.384;2022-11-23T02:48:00;99578.19;;;16.80;100.00
60918;BME280;46792;38.854;-9.384;2022-11-23T02:50:01;99584.97;;;16.82;100.00
60918;BME280;46792;38.854;-9.384;2022-11-23T02:52:21;99583.75;;;16.75;100.00
60918;BME280;46792;38.854;-9.384;2022-11-23T02:54:21;99583.88;;;16.69;100.00
60918;BME280;46792;38.854;-9.384;2022-11-23T02:56:31;99581.44;;;16.68;100.00
60918;BME280;46792;38.854;-9.384;2022-11-23T02:58:32;99576.78;;;16.68;100.00
60918;BME280;46792;38.854;-9.384;2022-11-23T03:00:32;99576.38;;;16.61;100.00
60918;BME280;46792;38.854;-9.384;2022-11-23T03:02:33;99573.97;;;16.73;100.00
60918;BME280;46792;38.854;-9.384;2022-11-23T03:04:34;99571.84;;;16.70;100.00
60918;BME280;46792;38.854;-9.384;2022-11-23T03:06:53;99565.47;;;16.75;100.00
60918;BME280;46792;38.854;-9.384;2022-11-23T03:09:12;99566.81;;;16.64;100.00
60918;BME280;46792;38.854;-9.384;2022-11-23T03:11:12;99565.69;;;16.65;100.00
60918;BME280;46792;38.854;-9.384;2022-11-23T03:13:13;99561.75;;;16.71;100.00
60918;BME280;46792;38.854;-9.384;2022-11-23T03:15:14;99563.06;;;16.73;100.00
60918;BME280;46792;38.854;-9.384;2022-11-23T03:17:15;99555.41;;;16.76;100.00
60918;BME280;46792;38.854;-9.384;2022-11-23T03:19:18;99556.00;;;16.72;100.00
60918;BME280;46792;38.854;-9.384;2022-11-23T03:21:18;99541.47;;;16.63;100.00
60918;BME280;46792;38.854;-9.384;2022-11-23T03:23:19;99553.97;;;16.64;100.00
60918;BME280;46792;38.854;-9.384;2022-11-23T03:25:21;99550.03;;;16.70;100.00
60918;BME280;46792;38.854;-9.384;2022-11-23T03:27:26;99545.47;;;16.80;100.00
60918;BME280;46792;38.854;-9.384;2022-11-23T03:29:26;99539.66;;;16.72;100.00
60918;BME280;46792;38.854;-9.384;2022-11-23T03:31:29;99536.31;;;16.76;100.00
60918;BME280;46792;38.854;-9.384;2022-11-23T03:33:30;99539.13;;;16.70;100.00
60918;BME280;46792;38.854;-9.384;2022-11-23T03:35:31;99534.19;;;16.72;100.00
60918;BME280;46792;38.854;-9.384;2022-11-23T03:43:05;99540.84;;;16.80;100.00
60918;BME280;46792;38.854;-9.384;2022-11-23T03:45:07;99535.81;;;16.73;100.00
60918;BME280;46792;38.854;-9.384;2022-11-23T03:47:11;99531.25;;;16.83;100.00
60918;BME280;46792;38.854;-9.384;2022-11-23T03:49:12;99523.06;;;16.69;100.00
60918;BME280;46792;38.854;-9.384;2022-11-23T03:51:31;99520.56;;;16.72;100.00
60918;BME280;46792;38.854;-9.384;2022-11-23T03:53:31;99531.66;;;16.76;100.00
60918;BME280;46792;38.854;-9.384;2022-11-23T03:55:33;99530.97;;;16.70;100.00
60918;BME280;46792;38.854;-9.384;2022-11-23T04:01:04;99530.97;;;16.70;100.00
60918;BME280;46792;38.854;-9.384;2022-11-23T04:03:23;99530.47;;;16.68;100.00
60918;BME280;46792;38.854;-9.384;2022-11-23T04:05:47;99530.34;;;16.73;100.00
60918;BME280;46792;38.854;-9.384;2022-11-23T04:08:06;99520.84;;;16.71;100.00
60918;BME280;46792;38.854;-9.384;2022-11-23T04:10:06;99522.06;;;16.79;100.00
60918;BME280;46792;38.854;-9.384;2022-11-23T04:12:27;99524.91;;;16.73;100.00
60918;BME280;46792;38.854;-9.384;2022-11-23T04:17:24;99516.81;;;16.68;100.00
60918;BME280;46792;38.854;-9.384;2022-11-23T04:24:24;99515.53;;;16.66;100.00
60918;BME280;46792;38.854;-9.384;2022-11-23T04:31:27;99516.31;;;16.66;100.00
60918;BME280;46792;38.854;-9.384;2022-11-23T04:33:38;99517.63;;;16.69;100.00
60918;BME280;46792;38.854;-9.384;2022-11-23T04:35:40;99525.69;;;16.74;100.00
60918;BME280;46792;38.854;-9.384;2022-11-23T04:40:20;99512.13;;;16.60;100.00
60918;BME280;46792;38.854;-9.384;2022-11-23T04:42:40;99512.41;;;16.58;100.00
60918;BME280;46792;38.854;-9.384;2022-11-23T04:44:41;99507.63;;;16.64;100.00
60918;BME280;46792;38.854;-9.384;2022-11-23T04:46:42;99519.06;;;16.66;100.00
60918;BME280;46792;38.854;-9.384;2022-11-23T04:48:46;99515.63;;;16.75;100.00
60918;BME280;46792;38.854;-9.384;2022-11-23T04:50:50;99516.09;;;16.77;100.00
60918;BME280;46792;38.854;-9.384;2022-11-23T04:52:59;99513.06;;;16.78;100.00
60918;BME280;46792;38.854;-9.384;2022-11-23T04:55:08;99514.59;;;16.70;100.00
60918;BME280;46792;38.854;-9.384;2022-11-23T04:57:16;99506.72;;;16.69;100.00
60918;BME280;46792;38.854;-9.384;2022-11-23T04:59:21;99507.44;;;16.75;100.00
60918;BME280;46792;38.854;-9.384;2022-11-23T05:01:22;99512.56;;;16.76;100.00
60918;BME280;46792;38.854;-9.384;2022-11-23T05:03:41;99507.44;;;16.75;100.00
60918;BME280;46792;38.854;-9.384;2022-11-23T05:05:42;99517.00;;;16.72;100.00
60918;BME280;46792;38.854;-9.384;2022-11-23T05:08:01;99509.25;;;16.79;100.00
60918;BME280;46792;38.854;-9.384;2022-11-23T05:10:21;99519.44;;;16.73;100.00
60918;BME280;46792;38.854;-9.384;2022-11-23T05:12:22;99515.63;;;16.75;100.00
60918;BME280;46792;38.854;-9.384;2022-11-23T05:17:45;99509.16;;;16.70;100.00
60918;BME280;46792;38.854;-9.384;2022-11-23T05:19:54;99514.00;;;16.73;100.00
60918;BME280;46792;38.854;-9.384;2022-11-23T05:21:56;99524.91;;;16.73;100.00
60918;BME280;46792;38.854;-9.384;2022-11-23T05:23:59;99524.59;;;16.75;100.00
60918;BME280;46792;38.854;-9.384;2022-11-23T05:26:02;99533.59;;;16.76;100.00
60918;BME280;46792;38.854;-9.384;2022-11-23T05:28:04;99533.09;;;16.73;100.00
60918;BME280;46792;38.854;-9.384;2022-11-23T05:30:05;99538.31;;;16.70;100.00
60918;BME280;46792;38.854;-9.384;2022-11-23T05:32:06;99532.75;;;16.75;100.00
60918;BME280;46792;38.854;-9.384;2022-11-23T05:34:07;99537.63;;;16.78;100.00
60918;BME280;46792;38.854;-9.384;2022-11-23T05:36:16;99541.25;;;16.73;100.00
60918;BME280;46792;38.854;-9.384;2022-11-23T05:38:16;99544.59;;;16.70;100.00
60918;BME280;46792;38.854;-9.384;2022-11-23T05:40:20;99544.88;;;16.69;100.00
60918;BME280;46792;38.854;-9.384;2022-11-23T05:42:22;99546.72;;;16.73;100.00
60918;BME280;46792;38.854;-9.384;2022-11-23T05:44:28;99535.41;;;16.66;100.00
60918;BME280;46792;38.854;-9.384;2022-11-23T05:46:29;99540.06;;;16.66;100.00
60918;BME280;46792;38.854;-9.384;2022-11-23T05:53:33;99552.81;;;16.93;100.00
60918;BME280;46792;38.854;-9.384;2022-11-23T05:55:42;99546.66;;;16.87;100.00
60918;BME280;46792;38.854;-9.384;2022-11-23T06:00:21;99555.16;;;16.86;100.00
60918;BME280;46792;38.854;-9.384;2022-11-23T06:02:31;99559.50;;;16.87;100.00
60918;BME280;46792;38.854;-9.384;2022-11-23T06:04:50;99552.53;;;16.81;100.00
60918;BME280;46792;38.854;-9.384;2022-11-23T06:07:10;99561.13;;;16.88;100.00
60918;BME280;46792;38.854;-9.384;2022-11-23T06:09:40;99555.47;;;16.84;100.00
60918;BME280;46792;38.854;-9.384;2022-11-23T06:11:43;99556.78;;;16.87;100.00
60918;BME280;46792;38.854;-9.384;2022-11-23T06:13:51;99549.31;;;16.79;100.00
60918;BME280;46792;38.854;-9.384;2022-11-23T06:15:53;99551.84;;;16.89;100.00
60918;BME280;46792;38.854;-9.384;2022-11-23T06:18:01;99550.50;;;16.86;100.00
60918;BME280;46792;38.854;-9.384;2022-11-23T06:20:20;99550.94;;;16.80;100.00
60918;BME280;46792;38.854;-9.384;2022-11-23T06:22:39;99558.09;;;16.90;100.00
60918;BME280;46792;38.854;-9.384;2022-11-23T06:24:41;99561.31;;;16.78;100.00
60918;BME280;46792;38.854;-9.384;2022-11-23T06:27:02;99567.59;;;16.78;100.00
60918;BME280;46792;38.854;-9.384;2022-11-23T06:29:03;99571.72;;;16.90;100.00
60918;BME280;46792;38.854;-9.384;2022-11-23T06:33:42;99558.09;;;16.90;100.00
60918;BME280;46792;38.854;-9.384;2022-11-23T06:36:02;99564.03;;;16.92;100.00
60918;BME280;46792;38.854;-9.384;2022-11-23T06:38:21;99576.88;;;16.91;100.00
60918;BME280;46792;38.854;-9.384;2022-11-23T06:40:29;99569.31;;;16.88;100.00
60918;BME280;46792;38.854;-9.384;2022-11-23T06:42:50;99568.06;;;16.94;100.00
60918;BME280;46792;38.854;-9.384;2022-11-23T06:45:15;99571.72;;;16.90;100.00
60918;BME280;46792;38.854;-9.384;2022-11-23T06:47:19;99563.94;;;16.83;100.00
60918;BME280;46792;38.854;-9.384;2022-11-23T06:49:21;99572.72;;;16.80;100.00
60918;BME280;46792;38.854;-9.384;2022-11-23T06:51:38;99573.34;;;16.77;100.00
60918;BME280;46792;38.854;-9.384;2022-11-23T06:53:39;99570.13;;;16.75;100.00
60918;BME280;46792;38.854;-9.384;2022-11-23T06:55:42;99576.38;;;16.75;100.00
60918;BME280;46792;38.854;-9.384;2022-11-23T06:57:44;99570.31;;;16.78;100.00
60918;BME280;46792;38.854;-9.384;2022-11-23T06:59:46;99574.56;;;16.84;100.00
60918;BME280;46792;38.854;-9.384;2022-11-23T07:01:49;99569.91;;;16.85;100.00
60918;BME280;46792;38.854;-9.384;2022-11-23T07:03:50;99578.09;;;16.85;100.00
60918;BME280;46792;38.854;-9.384;2022-11-23T07:06:09;99582.84;;;16.79;100.00
60918;BME280;46792;38.854;-9.384;2022-11-23T07:08:10;99566.59;;;16.74;100.00
60918;BME280;46792;38.854;-9.384;2022-11-23T07:10:11;99571.25;;;16.73;100.00
60918;BME280;46792;38.854;-9.384;2022-11-23T07:12:26;99573.97;;;16.73;100.00
60918;BME280;46792;38.854;-9.384;2022-11-23T07:14:26;99575.19;;;16.67;100.00
60918;BME280;46792;38.854;-9.384;2022-11-23T07:16:29;99576.19;;;16.71;100.00
60918;BME280;46792;38.854;-9.384;2022-11-23T07:18:31;99571.03;;;16.70;100.00
60918;BME280;46792;38.854;-9.384;2022-11-23T07:20:34;99577.81;;;16.72;100.00
60918;BME280;46792;38.854;-9.384;2022-11-23T07:22:38;99570.75;;;16.71;100.00
60918;BME280;46792;38.854;-9.384;2022-11-23T07:24:38;99575.38;;;16.71;100.00
60918;BME280;46792;38.854;-9.384;2022-11-23T07:26:40;99578.09;;;16.71;100.00
60918;BME280;46792;38.854;-9.384;2022-11-23T07:28:41;99575.59;;;16.75;100.00
60918;BME280;46792;38.854;-9.384;2022-11-23T07:30:44;99581.03;;;16.75;100.00
60918;BME280;46792;38.854;-9.384;2022-11-23T07:32:44;99588.81;;;16.67;100.00
60918;BME280;46792;38.854;-9.384;2022-11-23T07:34:45;99592.72;;;16.61;100.00
60918;BME280;46792;38.854;-9.384;2022-11-23T07:36:47;99587.69;;;16.68;100.00
60918;BME280;46792;38.854;-9.384;2022-11-23T07:39:06;99602.34;;;16.72;100.00
60918;BME280;46792;38.854;-9.384;2022-11-23T07:41:07;99610.19;;;16.74;100.00
60918;BME280;46792;38.854;-9.384;2022-11-23T07:43:24;99606.59;;;16.65;100.00
60918;BME280;46792;38.854;-9.384;2022-11-23T07:45:26;99600.22;;;16.69;100.00
60918;BME280;46792;38.854;-9.384;2022-11-23T07:47:28;99599.72;;;16.67;100.00
60918;BME280;46792;38.854;-9.384;2022-11-23T07:49:29;99600.91;;;16.61;100.00
60918;BME280;46792;38.854;-9.384;2022-11-23T07:51:30;99599.78;;;16.62;100.00
60918;BME280;46792;38.854;-9.384;2022-11-23T07:53:31;99604.03;;;16.54;100.00
60918;BME280;46792;38.854;-9.384;2022-11-23T07:55:32;99599.38;;;16.69;100.00
60918;BME280;46792;38.854;-9.384;2022-11-23T08:00:45;99607.19;;;16.62;100.00
60918;BME280;46792;38.854;-9.384;2022-11-23T08:02:45;99598.41;;;16.51;100.00
60918;BME280;46792;38.854;-9.384;2022-11-23T08:04:46;99599.78;;;16.62;100.00
60918;BME280;46792;38.854;-9.384;2022-11-23T08:06:46;99603.16;;;16.59;100.00
60918;BME280;46792;38.854;-9.384;2022-11-23T08:08:47;99602.22;;;16.50;100.00
60918;BME280;46792;38.854;-9.384;2022-11-23T08:10:48;99607.78;;;16.58;100.00
60918;BME280;46792;38.854;-9.384;2022-11-23T08:12:48;99611.09;;;16.55;100.00
60918;BME280;46792;38.854;-9.384;2022-11-23T08:17:08;99611.63;;;16.71;100.00
60918;BME280;46792;38.854;-9.384;2022-11-23T08:19:09;99615.47;;;16.70;100.00
60918;BME280;46792;38.854;-9.384;2022-11-23T08:21:10;99620.31;;;16.73;100.00
60918;BME280;46792;38.854;-9.384;2022-11-23T08:23:10;99613.25;;;16.72;100.00
60918;BME280;46792;38.854;-9.384;2022-11-23T08:25:11;99615.75;;;16.69;100.00
60918;BME280;46792;38.854;-9.384;2022-11-23T08:27:12;99614.63;;;16.70;100.00
60918;BME280;46792;38.854;-9.384;2022-11-23T08:29:13;99611.72;;;16.80;100.00
60918;BME280;46792;38.854;-9.384;2022-11-23T08:31:13;99628.28;;;16.84;100.00
60918;BME280;46792;38.854;-9.384;2022-11-23T08:33:14;99636.25;;;16.80;100.00
60918;BME280;46792;38.854;-9.384;2022-11-23T08:35:15;99637.38;;;16.79;100.00
60918;BME280;46792;38.854;-9.384;2022-11-23T08:37:16;99630.72;;;16.71;100.00
60918;BME280;46792;38.854;-9.384;2022-11-23T08:39:16;99638.16;;;16.80;100.00
60918;BME280;46792;38.854;-9.384;2022-11-23T08:41:21;99642.00;;;16.79;100.00
60918;BME280;46792;38.854;-9.384;2022-11-23T08:43:22;99644.53;;;16.75;100.00
60918;BME280;46792;38.854;-9.384;2022-11-23T08:45:23;99640.28;;;16.69;100.00
60918;BME280;46792;38.854;-9.384;2022-11-23T08:47:24;99643.63;;;16.66;100.00
60918;BME280;46792;38.854;-9.384;2022-11-23T08:49:25;99641.69;;;16.66;100.00
60918;BME280;46792;38.854;-9.384;2022-11-23T08:51:29;99650.69;;;16.67;100.00
60918;BME280;46792;38.854;-9.384;2022-11-23T08:53:29;99657.13;;;16.71;100.00
60918;BME280;46792;38.854;-9.384;2022-11-23T08:55:30;99660.19;;;16.69;100.00
60918;BME280;46792;38.854;-9.384;2022-11-23T08:57:31;99667.63;;;16.78;100.00
60918;BME280;46792;38.854;-9.384;2022-11-23T08:59:32;99660.56;;;16.77;100.00
60918;BME280;46792;38.854;-9.384;2022-11-23T09:01:33;99668.97;;;16.80;100.00
60918;BME280;46792;38.854;-9.384;2022-11-23T09:03:34;99677.56;;;16.73;100.00
60918;BME280;46792;38.854;-9.384;2022-11-23T09:05:36;99673.59;;;16.80;100.00
60918;BME280;46792;38.854;-9.384;2022-11-23T09:07:37;99672.09;;;16.87;100.00
60918;BME280;46792;38.854;-9.384;2022-11-23T09:09:37;99675.34;;;16.76;100.00
60918;BME280;46792;38.854;-9.384;2022-11-23T09:11:38;99674.72;;;16.79;100.00
60918;BME280;46792;38.854;-9.384;2022-11-23T09:13:39;99673.31;;;16.81;100.00
60918;BME280;46792;38.854;-9.384;2022-11-23T09:15:40;99682.72;;;16.89;100.00
60918;BME280;46792;38.854;-9.384;2022-11-23T09:17:41;99683.22;;;16.91;100.00
60918;BME280;46792;38.854;-9.384;2022-11-23T09:19:41;99683.81;;;16.88;100.00
60918;BME280;46792;38.854;-9.384;2022-11-23T09:21:42;99682.09;;;16.78;100.00
60918;BME280;46792;38.854;-9.384;2022-11-23T09:23:43;99688.56;;;16.82;100.00
60918;BME280;46792;38.854;-9.384;2022-11-23T09:25:43;99694.50;;;16.70;100.00
60918;BME280;46792;38.854;-9.384;2022-11-23T09:27:48;99698.03;;;16.71;100.00
60918;BME280;46792;38.854;-9.384;2022-11-23T09:29:49;99699.13;;;16.70;100.00
60918;BME280;46792;38.854;-9.384;2022-11-23T09:31:49;99688.44;;;16.60;100.00
60918;BME280;46792;38.854;-9.384;2022-11-23T09:33:53;99700.03;;;16.65;100.00
60918;BME280;46792;38.854;-9.384;2022-11-23T09:36:01;99688.50;;;16.54;100.00
60918;BME280;46792;38.854;-9.384;2022-11-23T09:38:02;99695.91;;;16.54;100.00
60918;BME280;46792;38.854;-9.384;2022-11-23T09:40:03;99701.34;;;16.54;100.00
60918;BME280;46792;38.854;-9.384;2022-11-23T09:44:34;99695.25;;;16.43;100.00
60918;BME280;46792;38.854;-9.384;2022-11-23T09:49:07;99707.41;;;16.51;100.00
60918;BME280;46792;38.854;-9.384;2022-11-23T09:51:18;99710.44;;;16.49;100.00
60918;BME280;46792;38.854;-9.384;2022-11-23T09:53:22;99703.88;;;16.50;100.00
60918;BME280;46792;38.854;-9.384;2022-11-23T09:55:37;99711.13;;;16.55;100.00
60918;BME280;46792;38.854;-9.384;2022-11-23T09:57:41;99708.63;;;16.58;100.00
60918;BME280;46792;38.854;-9.384;2022-11-23T09:59:49;99714.00;;;16.64;100.00
60918;BME280;46792;38.854;-9.384;2022-11-23T10:01:50;99712.06;;;16.64;100.00
60918;BME280;46792;38.854;-9.384;2022-11-23T10:03:50;99711.13;;;16.55;100.00
60918;BME280;46792;38.854;-9.384;2022-11-23T10:06:29;99717.81;;;16.63;100.00
60918;BME280;46792;38.854;-9.384;2022-11-23T10:11:03;99713.28;;;16.58;100.00
60918;BME280;46792;38.854;-9.384;2022-11-23T10:22:20;99710.88;;;16.70;100.00
60918;BME280;46792;38.854;-9.384;2022-11-23T10:24:30;99716.81;;;16.72;100.00
60918;BME280;46792;38.854;-9.384;2022-11-23T10:26:36;99705.41;;;16.70;100.00
60918;BME280;46792;38.854;-9.384;2022-11-23T10:28:37;99718.03;;;16.66;100.00
60918;BME280;46792;38.854;-9.384;2022-11-23T10:30:38;99738.69;;;16.53;100.00
60918;BME280;46792;38.854;-9.384;2022-11-23T10:32:50;99743.53;;;16.56;100.00
60918;BME280;46792;38.854;-9.384;2022-11-23T10:35:07;99738.13;;;16.37;100.00
60918;BME280;46792;38.854;-9.384;2022-11-23T10:37:15;99742.44;;;16.24;100.00
60918;BME280;46792;38.854;-9.384;2022-11-23T10:41:22;99744.16;;;16.01;100.00
60918;BME280;46792;38.854;-9.384;2022-11-23T10:43:25;99752.66;;;16.14;100.00
60918;BME280;46792;38.854;-9.384;2022-11-23T10:45:28;99757.75;;;16.01;100.00
60918;BME280;46792;38.854;-9.384;2022-11-23T10:47:41;99752.31;;;16.01;100.00
60918;BME280;46792;38.854;-9.384;2022-11-23T10:49:55;99758.50;;;16.07;100.00
60918;BME280;46792;38.854;-9.384;2022-11-23T10:52:03;99754.81;;;16.17;100.00
60918;BME280;46792;38.854;-9.384;2022-11-23T10:54:18;99753.13;;;16.21;100.00
60918;BME280;46792;38.854;-9.384;2022-11-23T10:56:21;99751.69;;;16.23;100.00
60918;BME280;46792;38.854;-9.384;2022-11-23T10:58:33;99750.47;;;16.16;100.00
60918;BME280;46792;38.854;-9.384;2022-11-23T11:00:41;99749.81;;;16.24;100.00
60918;BME280;46792;38.854;-9.384;2022-11-23T11:04:45;99746.06;;;16.53;100.00
60918;BME280;46792;38.854;-9.384;2022-11-23T11:06:47;99739.09;;;16.61;100.00
60918;BME280;46792;38.854;-9.384;2022-11-23T11:08:58;99757.59;;;16.78;100.00
60918;BME280;46792;38.854;-9.384;2022-11-23T11:11:03;99751.78;;;16.84;100.00
60918;BME280;46792;38.854;-9.384;2022-11-23T11:15:25;99753.75;;;16.65;100.00
60918;BME280;46792;38.854;-9.384;2022-11-23T11:17:29;99755.78;;;16.73;100.00
60918;BME280;46792;38.854;-9.384;2022-11-23T11:19:34;99755.16;;;16.62;100.00
60918;BME280;46792;38.854;-9.384;2022-11-23T11:21:40;99760.59;;;16.62;100.00
60918;BME280;46792;38.854;-9.384;2022-11-23T11:23:41;99756.66;;;16.54;100.00
60918;BME280;46792;38.854;-9.384;2022-11-23T11:25:46;99746.66;;;16.50;100.00
60918;BME280;46792;38.854;-9.384;2022-11-23T11:27:50;99749.22;;;16.60;100.00
60918;BME280;46792;38.854;-9.384;2022-11-23T11:29:54;99760.13;;;16.74;100.00
60918;BME280;46792;38.854;-9.384;2022-11-23T11:31:58;99754.78;;;16.83;100.00
60918;BME280;46792;38.854;-9.384;2022-11-23T11:36:05;99744.34;;;17.04;100.00
60918;BME280;46792;38.854;-9.384;2022-11-23T11:38:25;99750.41;;;17.01;100.00
60918;BME280;46792;38.854;-9.384;2022-11-23T11:40:40;99759.59;;;17.05;100.00
60918;BME280;46792;38.854;-9.384;2022-11-23T11:43:06;99760.53;;;17.14;100.00
60918;BME280;46792;38.854;-9.384;2022-11-23T11:45:24;99750.13;;;17.16;100.00
60918;BME280;46792;38.854;-9.384;2022-11-23T11:47:31;99751.00;;;17.12;100.00
60918;BME280;46792;38.854;-9.384;2022-11-23T11:49:39;99739.41;;;17.06;100.00
60918;BME280;46792;38.854;-9.384;2022-11-23T11:51:45;99732.72;;;16.98;100.00
60918;BME280;46792;38.854;-9.384;2022-11-23T11:53:56;99738.38;;;17.02;100.00
60918;BME280;46792;38.854;-9.384;2022-11-23T11:58:22;99727.88;;;16.95;100.00
60918;BME280;46792;38.854;-9.384;2022-11-23T12:00:25;99731.94;;;16.98;100.00
60918;BME280;46792;38.854;-9.384;2022-11-23T12:02:32;99735.66;;;17.02;100.00
60918;BME280;46792;38.854;-9.384;2022-11-23T12:05:23;99737.59;;;17.01;100.00
60918;BME280;46792;38.854;-9.384;2022-11-23T12:07:21;99735.66;;;17.16;100.00
60918;BME280;46792;38.854;-9.384;2022-11-23T12:09:29;99733.53;;;17.27;100.00
60918;BME280;46792;38.854;-9.384;2022-11-23T12:11:32;99731.09;;;17.25;100.00